Time;durP1;ratioP1;P1;durP2;ratioP2;P2;SDS_P1;SDS_P2;PMS_P1;PMS_P2;Temp;Humidity;BMP_temperature;BMP_pressure;BME280_temperature;BME280_humidity;BME280_pressure;Samples;Min_cycle;Max_cycle;Signal;HPM_P1;HPM_P2
2022/08/05 00:02:14;;;;;;;0.40;0.38;;;32.30;41.40;;;;;;5090472;28;20052;-53
2022/08/05 00:04:41;;;;;;;0.30;0.10;;;32.30;41.50;;;;;;5090301;28;20040;-52
2022/08/05 00:07:10;;;;;;;6.32;0.85;;;32.30;41.50;;;;;;5090930;28;20046;-54
2022/08/05 00:09:37;;;;;;;1.10;0.20;;;32.30;41.60;;;;;;5090770;28;20509;-55
2022/08/05 00:12:04;;;;;;;1.60;0.40;;;32.30;41.50;;;;;;5090639;28;20667;-54
2022/08/05 00:14:32;;;;;;;1.15;0.20;;;32.30;41.50;;;;;;5090747;28;20039;-52
2022/08/05 00:16:59;;;;;;;1.35;0.40;;;32.20;41.50;;;;;;5090456;28;20047;-56
2022/08/05 00:19:26;;;;;;;6.90;0.40;;;32.20;41.50;;;;;;5090428;28;20048;-54
2022/08/05 00:21:53;;;;;;;0.68;0.13;;;32.20;41.50;;;;;;5088042;28;20040;-54
2022/08/05 00:24:22;;;;;;;1.30;0.57;;;32.20;41.50;;;;;;5090832;28;20043;-56
2022/08/05 00:26:49;;;;;;;1.17;0.50;;;32.20;41.40;;;;;;5080987;28;20047;-49
2022/08/05 00:29:16;;;;;;;1.35;0.20;;;32.10;41.30;;;;;;5094826;28;20040;-53
2022/08/05 00:31:43;;;;;;;1.77;0.20;;;32.10;41.30;;;;;;5087662;28;20051;-52
2022/08/05 00:34:10;;;;;;;1.95;0.30;;;32.10;41.90;;;;;;5090314;28;20036;-68
2022/08/05 00:36:37;;;;;;;3.75;0.50;;;32.10;41.40;;;;;;5090435;28;20518;-59
2022/08/05 00:39:04;;;;;;;1.92;0.20;;;32.00;41.10;;;;;;5094314;28;20043;-55
2022/08/05 00:41:34;;;;;;;1.63;0.30;;;32.00;41.10;;;;;;5089743;28;20504;-59
2022/08/05 00:44:01;;;;;;;3.30;0.10;;;32.00;41.00;;;;;;5089896;28;20048;-56
2022/08/05 00:46:28;;;;;;;2.75;0.13;;;32.00;40.90;;;;;;5090221;28;20047;-52
2022/08/05 00:48:56;;;;;;;0.20;0.20;;;31.90;41.00;;;;;;5090124;28;20071;-56
2022/08/05 00:51:23;;;;;;;5.10;0.10;;;31.90;41.10;;;;;;5083752;28;20496;-53
2022/08/05 00:53:50;;;;;;;3.60;0.50;;;31.90;41.00;;;;;;5086238;28;20048;-54
2022/08/05 00:56:18;;;;;;;0.68;0.10;;;31.90;41.00;;;;;;5090083;28;20040;-51
2022/08/05 00:58:46;;;;;;;0.60;0.10;;;31.80;40.90;;;;;;5082467;28;20119;-53
2022/08/05 01:01:14;;;;;;;0.82;0.30;;;31.80;40.90;;;;;;5080848;28;20036;-53
2022/08/05 01:03:42;;;;;;;1.95;0.68;;;31.70;40.90;;;;;;5089590;28;20125;-50
2022/08/05 01:06:10;;;;;;;2.83;0.10;;;31.70;40.90;;;;;;5089778;28;20063;-68
2022/08/05 01:08:37;;;;;;;10.20;0.10;;;31.70;41.00;;;;;;5088253;28;20616;-63
2022/08/05 01:11:09;;;;;;;1.50;0.17;;;31.70;41.00;;;;;;5089845;28;20042;-57
2022/08/05 01:13:43;;;;;;;3.38;0.35;;;31.60;41.00;;;;;;5089183;28;20050;-64
2022/08/05 01:16:14;;;;;;;1.42;0.40;;;31.60;40.90;;;;;;5089359;28;20067;-59
2022/08/05 01:18:46;;;;;;;1.88;0.35;;;31.60;41.00;;;;;;5088907;28;20126;-55
2022/08/05 01:21:28;;;;;;;2.08;0.50;;;31.50;41.00;;;;;;5088832;28;20512;-55
2022/08/05 01:24:09;;;;;;;1.55;0.10;;;31.50;40.90;;;;;;5089485;28;20521;-55
2022/08/05 01:26:51;;;;;;;1.45;0.20;;;31.50;41.00;;;;;;5087367;28;20514;-55
2022/08/05 01:29:27;;;;;;;1.77;0.10;;;31.40;40.90;;;;;;5085776;28;20032;-59
2022/08/05 01:31:58;;;;;;;;;;;31.40;41.00;;;;;;5089918;28;20040;-56
2022/08/05 01:34:30;;;;;;;1.80;0.10;;;31.40;41.10;;;;;;5089505;28;19927;-58
2022/08/05 01:37:05;;;;;;;1.65;0.10;;;31.40;41.10;;;;;;5090170;28;20071;-55
2022/08/05 01:39:35;;;;;;;3.75;0.50;;;31.40;41.00;;;;;;5081773;28;20127;-59
2022/08/05 01:42:05;;;;;;;1.58;0.10;;;31.40;40.90;;;;;;5085658;28;20076;-54
2022/08/05 01:44:36;;;;;;;0.75;0.30;;;31.40;40.90;;;;;;5084069;28;20067;-56
2022/08/05 01:47:04;;;;;;;2.47;0.20;;;31.40;40.90;;;;;;5082043;28;20121;-55
2022/08/05 01:49:33;;;;;;;0.30;0.10;;;31.50;41.00;;;;;;5088464;28;20037;-55
2022/08/05 01:52:02;;;;;;;2.83;0.20;;;31.50;41.00;;;;;;5078291;28;20106;-54
2022/08/05 01:54:34;;;;;;;0.82;0.20;;;31.50;41.00;;;;;;5086793;28;20036;-55
2022/08/05 01:57:04;;;;;;;1.55;0.10;;;31.50;41.10;;;;;;5077498;28;20047;-54
2022/08/05 01:59:34;;;;;;;3.97;0.57;;;31.50;41.10;;;;;;5088322;28;20039;-56
2022/08/05 02:02:04;;;;;;;0.80;0.10;;;31.40;41.00;;;;;;5086162;28;20138;-54
2022/08/05 02:04:34;;;;;;;2.55;0.10;;;31.50;41.20;;;;;;5083635;28;20040;-56
2022/08/05 02:07:02;;;;;;;0.82;0.30;;;31.40;41.10;;;;;;5077891;28;20133;-54
2022/08/05 02:09:29;;;;;;;0.45;0.40;;;31.40;41.10;;;;;;5088484;28;20050;-59
2022/08/05 02:12:04;;;;;;;2.50;0.17;;;31.40;41.20;;;;;;5088161;28;20139;-57
2022/08/05 02:14:40;;;;;;;1.35;0.10;;;31.40;41.30;;;;;;5088709;28;20528;-53
2022/08/05 02:17:08;;;;;;;;;;;31.40;41.30;;;;;;5088832;28;20068;-55
2022/08/05 02:19:37;;;;;;;0.70;0.30;;;31.30;41.30;;;;;;5088315;28;20384;-55
2022/08/05 02:22:13;;;;;;;1.00;0.10;;;31.30;41.40;;;;;;5088471;28;20365;-55
2022/08/05 02:24:46;;;;;;;0.20;0.10;;;31.30;41.30;;;;;;5086954;28;20051;-57
2022/08/05 02:27:14;;;;;;;0.55;0.10;;;31.40;41.40;;;;;;5088028;28;20044;-55
2022/08/05 02:29:44;;;;;;;0.95;0.75;;;31.30;41.30;;;;;;5088124;28;20621;-58
2022/08/05 02:32:13;;;;;;;1.48;0.13;;;31.40;41.40;;;;;;5076159;28;20048;-55
2022/08/05 02:34:41;;;;;;;0.63;0.30;;;31.30;41.40;;;;;;5088166;28;20040;-58
2022/08/05 02:37:10;;;;;;;2.45;0.40;;;31.30;41.40;;;;;;5088120;28;20039;-56
2022/08/05 02:39:39;;;;;;;2.42;0.10;;;31.30;41.40;;;;;;5087998;28;20051;-57
2022/08/05 02:42:08;;;;;;;0.70;0.15;;;31.30;41.50;;;;;;5087798;28;20063;-55
2022/08/05 02:44:36;;;;;;;2.10;0.60;;;31.30;41.50;;;;;;5087910;28;20040;-55
2022/08/05 02:47:06;;;;;;;1.75;0.22;;;31.30;41.60;;;;;;5087822;28;20123;-55
2022/08/05 02:49:37;;;;;;;0.40;0.10;;;31.30;41.60;;;;;;5087818;28;20040;-54
2022/08/05 02:52:06;;;;;;;1.83;0.10;;;31.30;41.60;;;;;;5087557;28;20040;-54
2022/08/05 02:54:35;;;;;;;0.15;0.10;;;31.30;41.60;;;;;;5087397;28;20518;-54
2022/08/05 02:57:02;;;;;;;0.65;0.10;;;31.30;41.60;;;;;;5087967;28;20071;-55
2022/08/05 02:59:30;;;;;;;3.13;0.10;;;31.20;41.50;;;;;;5087538;28;20130;-55
2022/08/05 03:01:59;;;;;;;0.20;0.10;;;31.30;41.50;;;;;;5087320;28;20162;-56
2022/08/05 03:04:28;;;;;;;1.33;0.28;;;31.20;41.30;;;;;;5087668;28;20028;-58
2022/08/05 03:06:55;;;;;;;1.85;0.10;;;31.20;41.30;;;;;;5087637;28;20126;-58
2022/08/05 03:09:23;;;;;;;3.03;0.20;;;31.20;41.20;;;;;;5087215;28;20511;-55
2022/08/05 03:11:50;;;;;;;4.47;0.20;;;31.20;41.20;;;;;;5087550;28;20116;-55
2022/08/05 03:14:17;;;;;;;2.50;0.47;;;31.10;41.10;;;;;;5087640;28;20048;-57
2022/08/05 03:16:44;;;;;;;3.30;0.57;;;31.20;41.20;;;;;;5087329;28;20127;-54
2022/08/05 03:19:11;;;;;;;0.90;0.10;;;31.20;41.20;;;;;;5087676;28;20043;-54
2022/08/05 03:21:39;;;;;;;1.30;0.10;;;31.10;41.20;;;;;;5086814;28;20040;-54
2022/08/05 03:24:08;;;;;;;0.95;0.20;;;31.10;41.20;;;;;;5085453;28;20040;-62
2022/08/05 03:26:35;;;;;;;1.08;0.10;;;31.10;41.30;;;;;;5087559;28;20046;-63
2022/08/05 03:29:03;;;;;;;0.98;0.10;;;31.10;41.30;;;;;;5087290;28;20028;-62
2022/08/05 03:31:30;;;;;;;0.60;0.13;;;31.10;41.30;;;;;;5078707;28;20133;-56
2022/08/05 03:33:58;;;;;;;1.05;0.20;;;31.10;41.40;;;;;;5084437;28;20071;-56
2022/08/05 03:36:25;;;;;;;0.98;0.10;;;31.10;41.50;;;;;;5087292;28;20040;-55
2022/08/05 03:38:54;;;;;;;2.33;0.20;;;31.10;41.40;;;;;;5087069;28;20040;-55
2022/08/05 03:41:21;;;;;;;1.73;0.10;;;31.10;41.40;;;;;;5087062;28;20071;-58
2022/08/05 03:43:48;;;;;;;0.17;0.10;;;31.10;41.40;;;;;;5087189;28;20078;-58
2022/08/05 03:46:15;;;;;;;1.42;0.40;;;31.10;41.40;;;;;;5086750;28;20119;-54
2022/08/05 03:48:42;;;;;;;0.52;0.10;;;31.10;41.30;;;;;;5086956;28;20035;-54
2022/08/05 03:51:13;;;;;;;3.50;0.10;;;31.00;41.30;;;;;;5087111;28;20122;-54
2022/08/05 03:53:50;;;;;;;0.75;0.10;;;31.00;41.30;;;;;;5086735;28;20694;-58
2022/08/05 03:56:25;;;;;;;0.45;0.20;;;31.00;41.30;;;;;;5087133;28;20044;-55
2022/08/05 03:58:55;;;;;;;0.03;0.00;;;31.00;41.30;;;;;;5087178;28;20050;-54
2022/08/05 04:01:23;;;;;;;1.65;0.20;;;31.00;41.30;;;;;;5086863;28;20046;-60
2022/08/05 04:03:52;;;;;;;1.17;0.10;;;31.00;41.20;;;;;;5086539;28;20052;-55
2022/08/05 04:06:20;;;;;;;2.05;0.10;;;30.90;41.20;;;;;;5070315;28;20032;-55
2022/08/05 04:08:48;;;;;;;1.20;0.10;;;30.90;41.20;;;;;;5086430;28;20511;-58
2022/08/05 04:11:16;;;;;;;0.85;0.15;;;30.90;41.20;;;;;;5086837;28;20592;-54
2022/08/05 04:13:45;;;;;;;0.85;0.30;;;30.90;41.20;;;;;;5086912;28;20052;-55
2022/08/05 04:16:13;;;;;;;2.75;0.10;;;30.90;41.20;;;;;;5070450;28;20066;-59
2022/08/05 04:18:40;;;;;;;0.43;0.10;;;30.90;41.30;;;;;;5090342;28;20036;-56
2022/08/05 04:21:07;;;;;;;1.63;0.10;;;30.80;41.30;;;;;;5090555;28;20040;-58
2022/08/05 04:23:35;;;;;;;1.88;0.10;;;30.90;41.40;;;;;;5090290;28;20534;-54
2022/08/05 04:26:03;;;;;;;2.28;0.22;;;30.90;41.40;;;;;;5090361;28;20040;-61
2022/08/05 04:28:31;;;;;;;1.80;0.30;;;30.90;41.40;;;;;;5090689;28;20050;-60
2022/08/05 04:31:00;;;;;;;1.08;0.05;;;30.80;41.60;;;;;;5085612;28;20040;-60
2022/08/05 04:33:27;;;;;;;1.10;0.10;;;30.80;41.30;;;;;;5086825;28;20428;-58
2022/08/05 04:35:54;;;;;;;1.08;0.10;;;30.80;41.20;;;;;;5089896;28;20872;-58
2022/08/05 04:38:21;;;;;;;3.33;0.10;;;30.80;41.20;;;;;;5089987;28;20032;-61
2022/08/05 04:40:48;;;;;;;2.08;0.30;;;30.80;41.20;;;;;;5090301;28;20035;-59
2022/08/05 04:43:15;;;;;;;1.42;0.20;;;30.80;41.20;;;;;;5090180;28;20121;-61
2022/08/05 04:45:42;;;;;;;0.73;0.10;;;30.80;41.20;;;;;;5090159;28;20789;-60
2022/08/05 04:48:13;;;;;;;0.38;0.20;;;30.70;41.10;;;;;;5089693;28;20089;-56
2022/08/05 04:50:41;;;;;;;1.13;0.10;;;30.80;41.20;;;;;;5089338;28;20040;-57
2022/08/05 04:53:09;;;;;;;1.52;0.13;;;30.70;41.10;;;;;;5090366;28;20051;-56
2022/08/05 04:55:36;;;;;;;2.05;0.47;;;30.70;41.10;;;;;;5089909;28;20044;-57
2022/08/05 04:58:04;;;;;;;2.08;0.20;;;30.70;41.10;;;;;;5089712;28;20643;-58
2022/08/05 05:00:32;;;;;;;5.30;0.10;;;30.70;41.20;;;;;;5089977;28;20047;-54
2022/08/05 05:02:59;;;;;;;0.43;0.10;;;30.70;41.20;;;;;;5089494;28;20036;-59
2022/08/05 05:05:27;;;;;;;0.68;0.10;;;30.70;41.10;;;;;;5089232;28;20154;-57
2022/08/05 05:07:55;;;;;;;1.20;0.10;;;30.70;41.10;;;;;;5072787;28;20060;-56
2022/08/05 05:10:22;;;;;;;1.73;0.10;;;30.70;41.20;;;;;;5089599;28;20066;-59
2022/08/05 05:12:49;;;;;;;2.38;0.20;;;30.60;41.10;;;;;;5089526;28;20040;-60
2022/08/05 05:15:16;;;;;;;0.73;0.10;;;30.60;41.10;;;;;;5089657;28;20047;-57
2022/08/05 05:17:44;;;;;;;0.25;0.15;;;30.60;41.20;;;;;;5088723;28;20046;-57
2022/08/05 05:20:12;;;;;;;0.30;0.10;;;30.50;41.10;;;;;;5089181;28;20044;-55
2022/08/05 05:22:41;;;;;;;0.30;0.10;;;30.50;41.20;;;;;;5089495;28;20043;-57
2022/08/05 05:25:09;;;;;;;0.38;0.30;;;30.50;41.30;;;;;;5088233;28;20520;-60
2022/08/05 05:27:37;;;;;;;1.85;0.20;;;30.40;41.20;;;;;;5089481;28;20040;-60
2022/08/05 05:30:05;;;;;;;1.27;0.25;;;30.40;41.30;;;;;;5088310;28;20048;-58
2022/08/05 05:32:32;;;;;;;0.85;0.15;;;30.40;41.30;;;;;;5077052;28;20109;-57
2022/08/05 05:34:59;;;;;;;1.17;0.10;;;30.40;41.40;;;;;;5088771;28;20208;-56
2022/08/05 05:37:26;;;;;;;3.75;0.43;;;30.40;41.40;;;;;;5089112;28;20055;-56
2022/08/05 05:39:55;;;;;;;1.17;0.10;;;30.30;41.40;;;;;;5089221;28;20032;-56
2022/08/05 05:42:22;;;;;;;0.95;0.10;;;30.30;42.00;;;;;;5089049;28;20040;-55
2022/08/05 05:44:49;;;;;;;3.85;0.20;;;30.30;41.50;;;;;;5089069;28;20079;-59
2022/08/05 05:47:16;;;;;;;0.82;0.63;;;30.30;41.60;;;;;;5088945;28;20028;-57
2022/08/05 05:49:43;;;;;;;1.98;0.10;;;30.20;41.40;;;;;;5087345;28;20131;-56
2022/08/05 05:52:10;;;;;;;0.95;0.15;;;30.20;41.40;;;;;;5089047;28;20054;-55
2022/08/05 05:54:37;;;;;;;2.45;1.08;;;30.20;41.40;;;;;;5088707;28;20130;-55
2022/08/05 05:57:05;;;;;;;2.53;0.10;;;30.20;41.40;;;;;;5089011;28;20515;-53
2022/08/05 05:59:32;;;;;;;0.73;0.10;;;30.20;41.40;;;;;;5088733;28;20048;-54
2022/08/05 06:01:59;;;;;;;3.65;0.20;;;30.20;41.30;;;;;;5088405;28;20416;-54
2022/08/05 06:04:26;;;;;;;3.13;0.80;;;30.10;41.20;;;;;;5088277;28;20142;-53
2022/08/05 06:06:53;;;;;;;1.17;0.10;;;30.10;41.10;;;;;;5088609;28;20032;-54
2022/08/05 06:09:20;;;;;;;1.10;0.10;;;30.10;41.10;;;;;;5088467;28;20081;-53
2022/08/05 06:11:47;;;;;;;0.70;0.10;;;30.10;41.10;;;;;;5076532;28;20041;-52
2022/08/05 06:14:15;;;;;;;3.35;0.43;;;30.00;41.00;;;;;;5087657;28;20052;-57
2022/08/05 06:16:42;;;;;;;1.60;0.20;;;30.00;41.00;;;;;;5088550;28;20028;-55
2022/08/05 06:19:09;;;;;;;1.60;0.85;;;30.00;41.10;;;;;;5088126;28;20044;-54
2022/08/05 06:21:37;;;;;;;0.52;0.15;;;30.00;41.10;;;;;;5082882;28;20063;-53
2022/08/05 06:24:05;;;;;;;2.47;0.10;;;30.00;41.10;;;;;;5088360;28;20043;-56
2022/08/05 06:26:32;;;;;;;1.73;0.10;;;30.00;41.20;;;;;;5085176;28;20043;-55
2022/08/05 06:28:59;;;;;;;4.75;0.20;;;29.90;41.20;;;;;;5088470;28;20080;-55
2022/08/05 06:31:27;;;;;;;2.45;0.40;;;29.90;41.20;;;;;;5079955;28;20047;-55
2022/08/05 06:33:54;;;;;;;3.53;0.20;;;29.90;41.20;;;;;;5084174;28;20040;-53
2022/08/05 06:36:22;;;;;;;1.10;0.10;;;29.90;41.20;;;;;;5088423;28;20567;-54
2022/08/05 06:38:52;;;;;;;2.63;0.20;;;29.90;41.20;;;;;;5087815;28;20535;-56
2022/08/05 06:41:19;;;;;;;3.25;0.25;;;29.90;41.20;;;;;;5088096;28;20048;-56
2022/08/05 06:43:46;;;;;;;3.17;0.77;;;29.90;41.20;;;;;;5088447;28;20040;-54
2022/08/05 06:46:13;;;;;;;2.55;0.10;;;29.90;41.20;;;;;;5088260;28;20469;-55
2022/08/05 06:48:42;;;;;;;9.07;0.30;;;29.80;41.20;;;;;;5087832;28;20115;-54
2022/08/05 06:51:09;;;;;;;2.28;0.30;;;29.80;41.20;;;;;;5083897;28;20132;-54
2022/08/05 06:53:36;;;;;;;1.92;0.28;;;29.80;41.20;;;;;;5082009;28;20858;-56
2022/08/05 06:56:04;;;;;;;1.58;0.32;;;29.90;41.20;;;;;;5088268;28;20122;-56
2022/08/05 06:58:31;;;;;;;4.15;1.27;;;29.80;41.20;;;;;;5088405;28;20032;-55
2022/08/05 07:00:59;;;;;;;12.15;1.55;;;29.80;41.20;;;;;;5081652;28;20119;-52
2022/08/05 07:03:27;;;;;;;4.60;0.28;;;29.80;41.30;;;;;;5087964;28;20070;-51
2022/08/05 07:05:56;;;;;;;3.53;0.25;;;29.80;41.30;;;;;;5087814;28;20508;-52
2022/08/05 07:08:23;;;;;;;4.38;0.60;;;29.80;41.30;;;;;;5075317;28;20044;-50
2022/08/05 07:10:51;;;;;;;3.58;0.30;;;29.80;41.50;;;;;;5087755;28;20047;-50
2022/08/05 07:18:47;;;;;;;4.30;0.20;;;29.80;41.70;;;;;;5087329;28;20089;-54
2022/08/05 07:21:15;;;;;;;7.38;0.70;;;29.80;41.50;;;;;;5087005;28;20036;-53
2022/08/05 07:23:42;;;;;;;1.20;0.15;;;29.80;41.50;;;;;;5087559;28;20069;-50
2022/08/05 07:26:09;;;;;;;8.10;0.45;;;29.90;41.50;;;;;;5086506;28;20496;-52
2022/08/05 07:28:36;;;;;;;3.28;0.17;;;29.90;41.40;;;;;;5087914;28;20083;-53
2022/08/05 07:31:03;;;;;;;3.67;0.30;;;29.90;41.40;;;;;;5082594;28;20041;-70
2022/08/05 07:33:30;;;;;;;11.48;0.20;;;30.00;41.40;;;;;;5080759;28;20131;-65
2022/08/05 07:35:57;;;;;;;4.40;0.40;;;30.00;41.40;;;;;;5087144;28;20046;-51
2022/08/05 07:38:27;;;;;;;3.15;0.20;;;30.10;41.50;;;;;;5087727;28;20722;-51
2022/08/05 07:40:54;;;;;;;0.45;0.10;;;30.10;41.50;;;;;;5087752;28;20043;-55
2022/08/05 07:43:21;;;;;;;3.40;0.95;;;30.20;41.60;;;;;;5087620;28;20136;-53
2022/08/05 07:45:48;;;;;;;7.65;1.38;;;30.20;41.60;;;;;;5087309;28;20040;-54
2022/08/05 07:48:15;;;;;;;5.47;0.30;;;30.20;41.50;;;;;;5082804;28;20042;-53
2022/08/05 07:50:42;;;;;;;2.35;0.43;;;30.20;41.50;;;;;;5087189;28;20032;-52
2022/08/05 07:53:09;;;;;;;3.20;0.20;;;30.20;41.50;;;;;;5091451;28;20093;-54
2022/08/05 07:55:38;;;;;;;2.60;0.20;;;30.30;41.60;;;;;;5091480;28;20043;-55
2022/08/05 07:58:05;;;;;;;2.42;0.35;;;30.30;41.60;;;;;;5091529;28;20577;-50
2022/08/05 08:00:32;;;;;;;1.63;0.20;;;30.30;41.60;;;;;;5090967;28;20036;-51
2022/08/05 08:02:59;;;;;;;3.03;0.30;;;30.40;41.70;;;;;;5091289;28;20040;-56
2022/08/05 08:05:26;;;;;;;1.75;0.30;;;30.40;42.20;;;;;;5090783;28;20055;-54
2022/08/05 08:07:54;;;;;;;4.07;0.50;;;30.30;41.50;;;;;;5090799;28;20044;-55
2022/08/05 08:10:21;;;;;;;4.00;0.82;;;30.40;41.60;;;;;;5078134;28;20499;-55
2022/08/05 08:12:50;;;;;;;6.63;0.20;;;30.40;41.60;;;;;;5091356;28;20036;-57
2022/08/05 08:15:17;;;;;;;3.10;0.20;;;30.40;41.60;;;;;;5091191;28;20420;-54
2022/08/05 08:17:45;;;;;;;2.35;0.22;;;30.40;41.60;;;;;;5077081;28;20066;-51
2022/08/05 08:20:12;;;;;;;3.53;0.30;;;30.50;41.60;;;;;;5090789;28;20073;-47
2022/08/05 08:22:39;;;;;;;7.15;1.33;;;30.50;41.70;;;;;;5089936;28;20043;-50
2022/08/05 08:25:08;;;;;;;2.63;0.55;;;30.50;41.70;;;;;;5088873;28;20048;-54
2022/08/05 08:27:35;;;;;;;6.70;0.65;;;30.60;41.80;;;;;;5091053;28;20044;-51
2022/08/05 08:30:04;;;;;;;2.80;0.43;;;30.60;41.60;;;;;;5090409;28;20116;-49
2022/08/05 08:32:34;;;;;;;3.70;0.45;;;30.60;41.50;;;;;;5078776;28;20039;-51
2022/08/05 08:35:02;;;;;;;1.02;0.30;;;30.70;41.50;;;;;;5090239;28;20044;-64
2022/08/05 08:37:29;;;;;;;9.38;0.60;;;30.60;41.40;;;;;;5088689;28;20042;-59
2022/08/05 08:39:56;;;;;;;3.13;0.90;;;30.60;41.30;;;;;;5090558;28;20032;-56
2022/08/05 08:42:23;;;;;;;2.42;0.40;;;30.70;41.40;;;;;;5090973;28;20037;-52
2022/08/05 08:44:53;;;;;;;5.93;0.40;;;30.70;41.30;;;;;;5090233;28;20131;-51
2022/08/05 08:47:23;;;;;;;2.78;0.20;;;30.70;41.30;;;;;;5090399;28;20105;-50
2022/08/05 08:49:52;;;;;;;2.88;0.38;;;30.70;41.20;;;;;;5090089;28;20036;-51
2022/08/05 08:52:23;;;;;;;7.78;0.30;;;30.70;41.30;;;;;;5084052;28;20032;-50
2022/08/05 08:54:53;;;;;;;4.63;0.50;;;30.70;41.20;;;;;;5087281;28;20136;-52
2022/08/05 08:57:20;;;;;;;0.30;0.10;;;30.70;41.10;;;;;;5088290;28;20504;-49
2022/08/05 08:59:47;;;;;;;7.95;0.63;;;30.70;41.00;;;;;;5087731;28;20044;-70
2022/08/05 09:04:05;;;;;;;;;;;30.70;40.60;;;;;;5100248;27;20347;-58
2022/08/05 09:06:32;;;;;;;6.40;1.02;;;30.60;41.20;;;;;;5103803;28;20010;-56
2022/08/05 09:09:00;;;;;;;4.00;0.50;;;30.50;41.20;;;;;;5105011;28;20050;-60
2022/08/05 09:11:28;;;;;;;3.83;0.40;;;30.50;41.30;;;;;;5102129;28;20118;-60
2022/08/05 09:13:55;;;;;;;4.35;0.32;;;30.50;41.30;;;;;;5104797;28;20047;-58
2022/08/05 09:16:22;;;;;;;6.72;0.75;;;30.50;41.20;;;;;;5105657;28;20058;-56
2022/08/05 09:18:50;;;;;;;2.53;1.05;;;30.50;41.20;;;;;;5106201;27;20413;-54
2022/08/05 09:21:21;;;;;;;2.42;0.50;;;30.50;41.20;;;;;;5104908;28;20036;-59
2022/08/05 09:24:03;;;;;;;6.05;0.30;;;30.50;41.10;;;;;;5110778;28;20047;-66
2022/08/05 09:26:30;;;;;;;7.82;0.57;;;30.50;41.00;;;;;;5093699;28;20043;-70
2022/08/05 09:29:00;;;;;;;7.07;0.40;;;30.50;41.10;;;;;;5084371;28;20048;-68
2022/08/05 09:33:58;;;;;;;;;;;30.40;40.70;;;;;;5125957;27;20321;-71
2022/08/05 09:36:38;;;;;;;2.97;0.30;;;30.40;41.10;;;;;;5107272;27;20381;-55
2022/08/05 09:39:08;;;;;;;3.47;0.30;;;30.40;41.00;;;;;;5103874;28;20050;-59
2022/08/05 09:41:53;;;;;;;3.75;0.35;;;30.40;40.90;;;;;;5104815;28;20414;-60
2022/08/05 09:44:33;;;;;;;4.63;0.25;;;30.40;40.80;;;;;;5105328;28;20452;-61
2022/08/05 09:47:09;;;;;;;3.58;0.28;;;30.40;40.50;;;;;;5094034;28;20046;-60
2022/08/05 09:49:41;;;;;;;1.92;0.20;;;30.20;40.40;;;;;;5090074;28;20500;-59
2022/08/05 09:52:19;;;;;;;6.40;1.70;;;30.10;41.00;;;;;;5098668;28;20047;-60
2022/08/05 09:54:54;;;;;;;2.40;0.40;;;29.90;40.70;;;;;;5103443;28;20048;-63
2022/08/05 09:57:36;;;;;;;3.00;0.22;;;29.70;41.00;;;;;;5102320;28;20067;-62
2022/08/05 10:00:10;;;;;;;1.02;0.20;;;29.60;41.30;;;;;;5104812;28;20035;-60
2022/08/05 10:02:39;;;;;;;2.53;0.35;;;29.50;41.40;;;;;;5102315;28;20074;-64
2022/08/05 10:05:17;;;;;;;2.38;0.85;;;29.40;41.50;;;;;;5104152;28;20036;-62
2022/08/05 10:07:47;;;;;;;2.35;0.32;;;29.40;41.60;;;;;;5103818;28;20499;-57
2022/08/05 10:10:14;;;;;;;1.13;0.20;;;29.30;42.30;;;;;;5095114;28;20028;-67
2022/08/05 10:12:44;;;;;;;2.33;0.20;;;29.20;41.70;;;;;;5101560;28;20044;-55
2022/08/05 10:15:16;;;;;;;1.55;0.85;;;29.20;42.00;;;;;;5101708;28;20047;-58
2022/08/05 10:17:43;;;;;;;3.53;0.35;;;29.20;41.80;;;;;;5103948;27;20067;-53
2022/08/05 10:20:13;;;;;;;4.47;0.82;;;29.10;42.00;;;;;;5101948;28;20031;-61
2022/08/05 10:22:40;;;;;;;2.42;0.60;;;29.10;41.90;;;;;;5104037;28;20032;-61
2022/08/05 10:25:08;;;;;;;6.07;0.40;;;29.10;41.90;;;;;;5104121;28;20117;-64
2022/08/05 10:27:35;;;;;;;8.23;0.90;;;29.10;41.90;;;;;;5104395;28;20040;-57
2022/08/05 10:30:04;;;;;;;2.55;0.77;;;29.10;41.90;;;;;;5104539;28;20044;-57
2022/08/05 10:32:32;;;;;;;2.20;0.40;;;29.00;41.90;;;;;;5104303;28;20059;-57
2022/08/05 10:35:00;;;;;;;1.75;0.93;;;29.00;42.00;;;;;;5104057;28;20417;-52
2022/08/05 10:37:30;;;;;;;5.88;0.68;;;29.00;41.90;;;;;;5104302;28;20515;-61
2022/08/05 10:40:03;;;;;;;2.20;0.45;;;29.00;42.10;;;;;;5103745;28;20131;-69
2022/08/05 10:42:35;;;;;;;5.18;0.63;;;28.90;42.10;;;;;;5104014;28;20043;-56
2022/08/05 10:45:04;;;;;;;2.20;0.43;;;29.00;41.80;;;;;;5091725;28;20048;-56
2022/08/05 10:47:35;;;;;;;4.38;0.45;;;28.90;41.70;;;;;;5090426;28;20515;-55
2022/08/05 10:50:10;;;;;;;2.60;1.15;;;28.90;42.10;;;;;;5088601;28;20069;-55
2022/08/05 10:52:41;;;;;;;2.63;0.40;;;28.90;41.50;;;;;;5090370;28;20052;-55
2022/08/05 10:55:10;;;;;;;2.28;1.45;;;28.90;41.50;;;;;;5090027;28;20119;-58
2022/08/05 10:57:40;;;;;;;7.45;0.80;;;28.90;41.50;;;;;;5090531;28;20036;-54
2022/08/05 11:00:12;;;;;;;3.35;1.02;;;28.90;41.20;;;;;;5090402;28;20062;-55
2022/08/05 11:03:09;;;;;;;1.95;0.35;;;29.00;41.00;;;;;;5078574;28;20098;-57
2022/08/05 11:05:37;;;;;;;6.85;0.30;;;29.00;41.00;;;;;;5069967;28;20049;-58
2022/08/05 11:08:07;;;;;;;8.40;0.57;;;29.00;40.80;;;;;;5074734;28;20036;-56
2022/08/05 11:10:36;;;;;;;2.67;0.30;;;29.10;40.90;;;;;;5090003;28;20068;-56
2022/08/05 11:13:04;;;;;;;1.48;0.10;;;29.10;40.60;;;;;;5090122;28;20424;-54
2022/08/05 11:15:34;;;;;;;2.40;0.20;;;29.10;40.30;;;;;;5089921;28;20051;-56
2022/08/05 11:18:22;;;;;;;0.82;0.20;;;29.10;40.00;;;;;;5089617;28;20089;-57
2022/08/05 11:20:50;;;;;;;1.02;0.38;;;29.20;40.00;;;;;;5089619;28;20113;-57
2022/08/05 11:23:36;;;;;;;2.08;0.45;;;29.20;40.00;;;;;;5089849;28;20040;-56
2022/08/05 11:26:05;;;;;;;4.53;0.50;;;29.30;40.30;;;;;;5089879;28;20051;-57
2022/08/05 11:28:45;;;;;;;4.32;0.65;;;29.30;41.20;;;;;;5088560;28;20046;-57
2022/08/05 11:31:26;;;;;;;0.30;0.15;;;29.30;40.60;;;;;;5089961;28;20078;-57
2022/08/05 11:33:56;;;;;;;1.20;0.20;;;29.40;40.60;;;;;;5089575;28;20044;-57
2022/08/05 11:36:45;;;;;;;6.72;0.77;;;29.40;40.40;;;;;;5089430;28;20130;-56
2022/08/05 11:39:15;;;;;;;1.40;0.38;;;29.40;40.40;;;;;;5089554;28;20055;-55
2022/08/05 11:41:49;;;;;;;6.60;0.43;;;29.40;40.50;;;;;;5089405;28;20044;-56
2022/08/05 11:44:19;;;;;;;3.03;0.40;;;29.50;40.40;;;;;;5089395;28;20599;-55
2022/08/05 11:46:49;;;;;;;1.50;0.55;;;29.50;40.10;;;;;;5089297;28;20048;-56
2022/08/05 11:49:17;;;;;;;3.05;0.20;;;29.60;40.00;;;;;;5088730;28;20563;-54
2022/08/05 11:51:46;;;;;;;2.08;0.28;;;29.60;39.60;;;;;;5085922;28;20044;-55
2022/08/05 11:54:21;;;;;;;3.88;0.50;;;29.60;39.20;;;;;;5088792;28;20126;-55
2022/08/05 11:56:50;;;;;;;13.47;1.80;;;29.60;38.80;;;;;;5088059;28;20040;-54
2022/08/05 11:59:19;;;;;;;1.80;0.35;;;29.60;38.90;;;;;;5089124;28;20036;-56
2022/08/05 12:01:57;;;;;;;4.63;0.50;;;29.60;39.00;;;;;;5088977;28;20044;-55
2022/08/05 12:04:25;;;;;;;5.15;0.17;;;29.70;39.00;;;;;;5088439;28;20572;-54
2022/08/05 12:06:53;;;;;;;5.10;0.55;;;29.70;38.60;;;;;;5088252;28;20036;-54
2022/08/05 12:09:26;;;;;;;3.45;0.20;;;29.80;38.20;;;;;;5088705;28;20233;-56
2022/08/05 12:11:54;;;;;;;4.90;0.25;;;29.80;38.20;;;;;;5088515;28;20428;-53
2022/08/05 12:14:21;;;;;;;4.47;0.20;;;29.80;38.30;;;;;;5088353;28;20128;-57
2022/08/05 12:16:48;;;;;;;1.77;0.90;;;29.90;38.20;;;;;;5088484;28;20055;-57
2022/08/05 12:19:16;;;;;;;4.40;0.77;;;29.90;37.80;;;;;;5088710;28;20393;-56
2022/08/05 12:21:47;;;;;;;3.55;0.50;;;29.90;38.20;;;;;;5088246;28;20054;-56
2022/08/05 12:24:17;;;;;;;1.65;0.40;;;30.00;37.50;;;;;;5088885;28;20124;-55
2022/08/05 12:26:48;;;;;;;1.27;0.30;;;30.00;37.50;;;;;;5088589;28;20565;-55
2022/08/05 12:29:17;;;;;;;6.25;0.22;;;30.10;37.60;;;;;;5088718;28;20131;-54
2022/08/05 12:31:46;;;;;;;1.70;0.43;;;30.10;37.70;;;;;;5088238;28;20047;-55
2022/08/05 12:34:15;;;;;;;3.53;0.17;;;30.10;37.60;;;;;;5088099;28;20044;-55
2022/08/05 12:36:43;;;;;;;0.55;0.15;;;30.10;37.30;;;;;;5088274;28;20142;-55
2022/08/05 12:39:10;;;;;;;2.97;0.35;;;30.20;37.30;;;;;;5088699;28;20129;-56
2022/08/05 12:41:39;;;;;;;4.88;0.10;;;30.20;37.00;;;;;;5069624;28;20040;-55
2022/08/05 12:44:09;;;;;;;1.95;0.22;;;30.20;36.70;;;;;;5067933;28;20044;-55
2022/08/05 12:46:39;;;;;;;0.10;0.10;;;30.20;36.60;;;;;;5068193;28;20040;-56
2022/08/05 12:49:09;;;;;;;4.03;0.20;;;30.30;36.70;;;;;;5069911;28;20151;-55
2022/08/05 12:51:47;;;;;;;1.00;0.25;;;30.30;36.80;;;;;;5075985;28;20427;-57
2022/08/05 12:54:22;;;;;;;0.55;0.30;;;30.40;36.80;;;;;;5088045;28;20040;-55
2022/08/05 12:56:51;;;;;;;0.35;0.10;;;30.40;36.40;;;;;;5088243;28;20052;-53
2022/08/05 12:59:21;;;;;;;2.97;0.10;;;30.30;36.30;;;;;;5088318;28;20409;-55
2022/08/05 13:01:58;;;;;;;1.55;0.50;;;30.40;36.20;;;;;;5087208;28;20075;-62
2022/08/05 13:04:28;;;;;;;0.52;0.13;;;30.40;36.20;;;;;;5085725;28;20112;-63
2022/08/05 13:06:57;;;;;;;2.75;0.10;;;30.40;36.50;;;;;;5086810;28;20036;-60
2022/08/05 13:09:25;;;;;;;2.15;0.10;;;30.40;37.00;;;;;;5087800;28;20386;-60